createdAt,value
2019-05-15T00:00:40.508Z,8.00
2019-05-15T00:03:09.622Z,7.90
2019-05-15T00:05:39.257Z,8.00
2019-05-15T00:08:09.170Z,8.00
2019-05-15T00:10:39.144Z,8.10
2019-05-15T00:13:09.265Z,8.30
2019-05-15T00:15:40.063Z,8.50
2019-05-15T00:18:09.591Z,8.40
2019-05-15T00:20:39.657Z,8.20
2019-05-15T00:23:08.914Z,8.40
2019-05-15T00:25:39.358Z,7.90
2019-05-15T00:28:09.380Z,7.50
2019-05-15T00:30:39.123Z,7.60
2019-05-15T00:33:08.856Z,7.60
2019-05-15T00:35:39.266Z,7.40
2019-05-15T00:38:09.446Z,7.60
2019-05-15T00:40:39.421Z,7.60
2019-05-15T00:43:09.094Z,7.80
2019-05-15T00:45:38.882Z,7.80
2019-05-15T00:48:08.801Z,7.80
2019-05-15T00:50:39.378Z,7.80
2019-05-15T00:53:08.720Z,7.70
2019-05-15T00:55:39.921Z,7.80
2019-05-15T00:58:09.055Z,7.80
2019-05-15T01:00:43.834Z,7.90
2019-05-15T01:03:13.088Z,7.90
2019-05-15T01:05:42.074Z,7.80
2019-05-15T01:08:11.871Z,8.00
2019-05-15T01:10:40.837Z,7.90
2019-05-15T01:13:09.582Z,7.50
2019-05-15T01:15:38.938Z,7.00
2019-05-15T01:18:09.307Z,6.90
2019-05-15T01:20:39.257Z,7.00
2019-05-15T01:23:09.047Z,7.30
2019-05-15T01:25:38.917Z,7.10
2019-05-15T01:28:09.365Z,6.90
2019-05-15T01:30:39.436Z,6.80
2019-05-15T01:33:08.502Z,6.70
2019-05-15T01:35:38.398Z,6.40
2019-05-15T01:38:08.354Z,6.60
2019-05-15T01:40:38.518Z,6.80
2019-05-15T01:43:09.129Z,6.50
2019-05-15T01:45:39.490Z,6.60
2019-05-15T01:48:08.684Z,6.90
2019-05-15T01:50:38.804Z,6.90
2019-05-15T01:53:08.582Z,6.80
2019-05-15T01:55:39.450Z,6.90
2019-05-15T01:58:09.034Z,6.90
2019-05-15T02:00:39.149Z,6.70
2019-05-15T02:03:09.685Z,6.60
2019-05-15T02:05:39.784Z,6.50
2019-05-15T02:08:08.784Z,6.10
2019-05-15T02:10:39.278Z,6.30
2019-05-15T02:13:08.914Z,6.30
2019-05-15T02:15:39.391Z,6.20
2019-05-15T02:18:08.836Z,6.30
2019-05-15T02:20:38.963Z,6.30
2019-05-15T02:23:11.630Z,6.60
2019-05-15T02:25:39.667Z,6.70
2019-05-15T02:28:09.361Z,6.60
2019-05-15T02:30:44.552Z,6.30
2019-05-15T02:33:13.358Z,6.40
2019-05-15T02:35:42.400Z,6.40
2019-05-15T02:38:15.223Z,6.30
2019-05-15T02:40:42.102Z,6.30
2019-05-15T02:43:11.097Z,6.30
2019-05-15T02:45:42.222Z,6.40
2019-05-15T02:48:10.700Z,6.50
2019-05-15T02:50:39.737Z,6.40
2019-05-15T02:53:09.825Z,6.30
2019-05-15T02:55:40.187Z,6.40
2019-05-15T02:58:10.286Z,6.40
2019-05-15T03:00:47.639Z,6.40
2019-05-15T03:03:10.897Z,6.60
2019-05-15T03:05:41.039Z,6.50
2019-05-15T03:08:10.000Z,6.40
2019-05-15T03:10:40.628Z,6.50
2019-05-15T03:13:10.267Z,6.30
2019-05-15T03:15:40.483Z,6.50
2019-05-15T03:18:10.216Z,6.50
2019-05-15T03:20:39.829Z,6.30
2019-05-15T03:23:09.960Z,6.30
2019-05-15T03:25:40.559Z,6.40
2019-05-15T03:28:10.923Z,6.40
2019-05-15T03:31:12.122Z,6.50
2019-05-15T03:33:18.525Z,6.30
2019-05-15T03:35:43.664Z,6.30
2019-05-15T03:38:12.183Z,6.50
2019-05-15T03:40:41.260Z,6.60
2019-05-15T03:43:10.257Z,6.80
2019-05-15T03:45:40.515Z,6.60
2019-05-15T03:48:09.934Z,6.40
2019-05-15T03:50:40.073Z,6.40
2019-05-15T03:53:10.468Z,6.40
2019-05-15T03:55:40.705Z,6.40
2019-05-15T03:58:10.451Z,6.40
2019-05-15T04:00:40.107Z,6.40
2019-05-15T04:03:10.749Z,6.40
2019-05-15T04:05:40.079Z,6.40
2019-05-15T04:08:10.801Z,6.40
2019-05-15T04:10:40.351Z,6.50
2019-05-15T04:13:09.954Z,6.60
2019-05-15T04:15:39.983Z,6.70
2019-05-15T04:18:09.774Z,6.80
2019-05-15T04:20:40.324Z,6.80
2019-05-15T04:23:10.590Z,6.70
2019-05-15T04:25:40.005Z,6.60
2019-05-15T04:28:22.902Z,6.80
2019-05-15T04:30:51.543Z,6.70
2019-05-15T04:33:22.661Z,6.80
2019-05-15T04:35:51.454Z,6.80
2019-05-15T04:38:20.508Z,6.70
2019-05-15T04:40:50.028Z,6.80
2019-05-15T04:43:19.578Z,6.80
2019-05-15T04:45:49.755Z,6.90
2019-05-15T04:48:20.068Z,6.90
2019-05-15T04:50:49.713Z,6.80
2019-05-15T04:53:19.383Z,6.90
2019-05-15T04:55:49.284Z,6.80
2019-05-15T04:58:20.744Z,6.90
2019-05-15T05:00:53.424Z,6.90
2019-05-15T05:03:22.727Z,7.00
2019-05-15T05:05:51.966Z,7.00
2019-05-15T05:08:21.284Z,7.10
2019-05-15T05:10:50.659Z,7.00
2019-05-15T05:13:20.085Z,7.00
2019-05-15T05:15:50.358Z,7.10
2019-05-15T05:18:19.925Z,7.20
2019-05-15T05:20:49.122Z,7.10
2019-05-15T05:23:19.197Z,7.20
2019-05-15T05:25:49.381Z,7.30
2019-05-15T05:28:18.785Z,7.30
2019-05-15T05:30:48.485Z,7.40
2019-05-15T05:33:18.417Z,7.40
2019-05-15T05:35:48.532Z,7.30
2019-05-15T05:38:19.375Z,7.40
2019-05-15T05:40:50.025Z,7.50
2019-05-15T05:43:20.371Z,7.50
2019-05-15T05:45:49.625Z,7.60
2019-05-15T05:48:20.078Z,7.60
2019-05-15T05:50:49.830Z,7.60
2019-05-15T05:53:21.276Z,7.70
2019-05-15T05:55:52.945Z,7.80
2019-05-15T05:58:20.815Z,7.80
2019-05-15T06:00:49.681Z,7.90
2019-05-15T06:03:19.606Z,7.90
2019-05-15T06:05:49.728Z,7.90
2019-05-15T06:08:19.771Z,7.90
2019-05-15T06:10:49.867Z,8.00
2019-05-15T06:13:19.575Z,8.00
2019-05-15T06:15:49.092Z,8.10
2019-05-15T06:18:19.745Z,8.20
2019-05-15T06:20:49.809Z,8.20
2019-05-15T06:23:23.209Z,8.30
2019-05-15T06:25:50.187Z,8.30
2019-05-15T06:28:20.342Z,8.40
2019-05-15T06:30:52.277Z,8.40
2019-05-15T06:33:21.124Z,8.40
2019-05-15T06:35:50.098Z,8.50
2019-05-15T06:38:19.668Z,8.60
2019-05-15T06:40:50.634Z,8.60
2019-05-15T06:43:19.685Z,8.60
2019-05-15T06:45:49.371Z,8.60
2019-05-15T06:48:18.945Z,8.60
2019-05-15T06:50:49.043Z,8.70
2019-05-15T06:53:19.223Z,8.80
2019-05-15T06:55:49.202Z,8.80
2019-05-15T06:58:19.126Z,8.90
2019-05-15T07:00:49.412Z,8.90
2019-05-15T07:03:25.374Z,8.90
2019-05-15T07:05:50.693Z,8.90
2019-05-15T07:08:20.100Z,9.00
2019-05-15T07:10:49.098Z,9.00
2019-05-15T07:13:18.530Z,9.00
2019-05-15T07:15:49.476Z,9.10
2019-05-15T07:18:19.910Z,9.10
2019-05-15T07:20:49.601Z,9.20
2019-05-15T07:23:19.313Z,9.20
2019-05-15T07:25:49.674Z,9.20
2019-05-15T07:28:19.266Z,9.20
2019-05-15T07:30:49.396Z,9.20
2019-05-15T07:33:34.234Z,9.30
2019-05-15T07:35:49.768Z,9.30
2019-05-15T07:38:19.532Z,9.50
2019-05-15T07:40:56.864Z,9.60
2019-05-15T07:43:19.247Z,9.70
2019-05-15T07:45:53.828Z,9.80
2019-05-15T07:48:19.167Z,9.90
2019-05-15T07:50:49.623Z,9.90
2019-05-15T07:53:19.681Z,9.90
2019-05-15T07:55:50.702Z,10.10
2019-05-15T07:58:21.752Z,10.10
2019-05-15T08:00:50.838Z,10.10
2019-05-15T08:03:19.821Z,10.20
2019-05-15T08:05:58.230Z,10.30
2019-05-15T08:08:19.274Z,10.30
2019-05-15T08:10:48.854Z,10.40
2019-05-15T08:13:18.746Z,10.50
2019-05-15T08:15:48.793Z,10.40
2019-05-15T08:18:18.828Z,10.50
2019-05-15T08:20:49.063Z,10.50
2019-05-15T08:23:19.434Z,10.60
2019-05-15T08:25:48.848Z,10.70
2019-05-15T08:28:19.191Z,10.70
2019-05-15T08:30:49.356Z,10.80
2019-05-15T08:33:18.963Z,10.80
2019-05-15T08:35:51.552Z,10.80
2019-05-15T08:38:18.928Z,10.90
2019-05-15T08:40:48.931Z,10.90
2019-05-15T08:43:18.860Z,11.00
2019-05-15T08:45:49.587Z,10.90
2019-05-15T08:48:19.042Z,11.10
2019-05-15T08:50:48.980Z,11.20
2019-05-15T08:53:19.402Z,11.20
2019-05-15T08:55:49.482Z,11.30
2019-05-15T08:58:20.344Z,11.40
2019-05-15T09:00:52.284Z,11.50
2019-05-15T09:03:20.032Z,11.60
2019-05-15T09:05:49.031Z,11.50
2019-05-15T09:08:23.444Z,11.60
2019-05-15T09:10:52.250Z,11.50
2019-05-15T09:13:21.231Z,11.60
2019-05-15T09:15:50.238Z,11.70
2019-05-15T09:18:20.261Z,11.70
2019-05-15T09:20:49.690Z,11.70
2019-05-15T09:23:19.552Z,11.80
2019-05-15T09:25:49.625Z,11.80
2019-05-15T09:28:19.437Z,11.80
2019-05-15T09:30:49.425Z,11.90
2019-05-15T09:33:20.116Z,11.90
2019-05-15T09:35:49.401Z,11.90
2019-05-15T09:38:18.952Z,12.00
2019-05-15T09:40:50.439Z,12.00
2019-05-15T09:43:18.976Z,12.10
2019-05-15T09:45:49.476Z,12.20
2019-05-15T09:48:19.585Z,12.30
2019-05-15T09:50:49.509Z,12.30
2019-05-15T09:53:19.238Z,12.40
2019-05-15T09:55:49.524Z,12.50
2019-05-15T09:58:20.656Z,12.60
2019-05-15T10:00:52.621Z,12.60
2019-05-15T10:03:20.760Z,12.70
2019-05-15T10:05:49.853Z,12.70
2019-05-15T10:08:21.258Z,12.70
2019-05-15T10:10:49.198Z,12.80
2019-05-15T10:13:18.905Z,12.80
2019-05-15T10:15:50.919Z,12.80
2019-05-15T10:18:19.281Z,13.10
2019-05-15T10:20:50.141Z,13.10
2019-05-15T10:23:19.943Z,13.10
2019-05-15T10:25:49.194Z,13.00
2019-05-15T10:28:19.475Z,13.10
2019-05-15T10:30:49.677Z,13.30
2019-05-15T10:33:20.012Z,13.30
2019-05-15T10:35:49.490Z,13.20
2019-05-15T10:38:19.232Z,13.30
2019-05-15T10:40:59.958Z,13.30
2019-05-15T10:43:20.516Z,13.30
2019-05-15T10:45:50.398Z,13.30
2019-05-15T10:48:19.658Z,13.20
2019-05-15T10:50:48.726Z,13.40
2019-05-15T10:53:19.003Z,13.40
2019-05-15T10:55:49.499Z,13.50
2019-05-15T10:58:21.882Z,13.70
2019-05-15T11:00:49.845Z,13.60
2019-05-15T11:03:19.968Z,13.60
2019-05-15T11:05:49.402Z,13.60
2019-05-15T11:08:19.035Z,13.70
2019-05-15T11:10:49.689Z,14.00
2019-05-15T11:13:19.204Z,14.20
2019-05-15T11:15:49.616Z,14.10
2019-05-15T11:18:18.729Z,14.10
2019-05-15T11:20:48.785Z,14.00
2019-05-15T11:23:19.931Z,14.10
2019-05-15T11:25:49.036Z,14.00
2019-05-15T11:28:17.727Z,14.20
2019-05-15T11:30:48.867Z,14.10
2019-05-15T11:33:18.853Z,14.10
2019-05-15T11:36:01.270Z,14.10
2019-05-15T11:38:19.949Z,14.30
2019-05-15T11:40:48.977Z,14.30
2019-05-15T11:43:19.671Z,14.40
2019-05-15T11:45:48.588Z,14.10
2019-05-15T11:48:20.195Z,14.30
2019-05-15T11:50:47.947Z,14.30
2019-05-15T11:53:19.213Z,14.40
2019-05-15T11:55:48.009Z,14.50
2019-05-15T11:58:18.987Z,14.40
2019-05-15T12:00:49.021Z,14.50
2019-05-15T12:03:19.048Z,14.50
2019-05-15T12:05:48.400Z,14.70
2019-05-15T12:08:18.600Z,15.00
2019-05-15T12:10:47.835Z,15.10
2019-05-15T12:13:18.937Z,14.80
2019-05-15T12:15:48.507Z,14.80
2019-05-15T12:18:17.766Z,14.90
2019-05-15T12:20:48.684Z,14.90
2019-05-15T12:23:17.391Z,15.20
2019-05-15T12:25:48.792Z,15.00
2019-05-15T12:28:18.584Z,15.20
2019-05-15T12:30:49.299Z,15.00
2019-05-15T12:33:18.530Z,15.10
2019-05-15T12:35:50.463Z,15.00
2019-05-15T12:38:18.777Z,15.10
2019-05-15T13:00:53.294Z,15.40
2019-05-15T13:03:21.951Z,15.40
2019-05-15T13:05:51.005Z,15.60
2019-05-15T13:08:21.205Z,15.60
2019-05-15T13:10:50.968Z,15.60
2019-05-15T13:13:19.847Z,15.80
2019-05-15T13:15:48.818Z,15.80
2019-05-15T13:18:22.880Z,15.80
2019-05-15T13:20:52.571Z,15.80
2019-05-15T13:23:21.630Z,15.90
2019-05-15T13:25:50.260Z,15.90
2019-05-15T13:28:19.279Z,16.00
2019-05-15T13:30:48.949Z,16.10
2019-05-15T13:33:18.260Z,16.30
2019-05-15T13:35:48.637Z,16.10
2019-05-15T13:38:18.016Z,16.10
2019-05-15T13:40:48.150Z,16.40
2019-05-15T13:43:18.591Z,16.20
2019-05-15T13:45:49.140Z,16.10
2019-05-15T13:48:20.048Z,16.10
2019-05-15T13:50:49.140Z,16.40
2019-05-15T13:53:18.467Z,16.40
2019-05-15T13:55:48.409Z,16.50
2019-05-15T13:58:17.606Z,16.60
2019-05-15T14:00:49.160Z,16.40
2019-05-15T14:03:17.435Z,16.70
2019-05-15T14:05:48.808Z,16.50
2019-05-15T14:08:18.038Z,16.40
2019-05-15T14:10:48.723Z,16.40
2019-05-15T14:13:18.899Z,16.40
2019-05-15T14:15:48.777Z,16.40
2019-05-15T14:18:19.696Z,16.20
2019-05-15T14:20:49.068Z,16.60
2019-05-15T14:23:18.596Z,16.70
2019-05-15T14:25:48.363Z,16.60
2019-05-15T14:28:18.918Z,16.60
2019-05-15T14:30:47.790Z,16.70
2019-05-15T14:33:16.789Z,16.80
2019-05-15T14:35:45.738Z,16.80
2019-05-15T14:38:14.745Z,16.80
2019-05-15T14:40:43.738Z,16.40
2019-05-15T14:43:12.740Z,16.60
2019-05-15T14:45:41.847Z,16.90
2019-05-15T14:48:12.005Z,17.00
2019-05-15T14:50:40.812Z,16.90
2019-05-15T14:53:09.880Z,16.60
2019-05-15T14:55:43.969Z,16.60
2019-05-15T14:58:09.849Z,16.60
2019-05-15T15:00:41.619Z,16.70
2019-05-15T15:03:10.014Z,16.90
2019-05-15T15:05:39.236Z,16.80
2019-05-15T15:08:18.398Z,17.00
2019-05-15T15:10:38.773Z,17.00
2019-05-15T15:13:09.282Z,17.40
2019-05-15T15:15:38.403Z,17.00
2019-05-15T15:18:08.330Z,17.20
2019-05-15T15:20:38.040Z,16.90
2019-05-15T15:23:08.613Z,16.70
2019-05-15T15:25:39.809Z,16.90
2019-05-15T15:28:08.691Z,16.80
2019-05-15T15:30:38.422Z,16.80
2019-05-15T15:33:08.502Z,16.70
2019-05-15T15:35:38.388Z,17.00
2019-05-15T15:38:13.321Z,16.80
2019-05-15T15:40:40.790Z,17.30
2019-05-15T15:43:10.747Z,17.30
2019-05-15T15:45:41.179Z,17.30
2019-05-15T15:48:12.725Z,16.90
2019-05-15T15:50:41.743Z,17.20
2019-05-15T15:53:10.563Z,17.10
2019-05-15T15:55:39.638Z,17.30
2019-05-15T15:58:09.724Z,17.30
2019-05-15T16:00:39.629Z,17.20
2019-05-15T16:03:08.697Z,17.30
2019-05-15T16:05:38.466Z,17.10
2019-05-15T16:08:08.532Z,16.80
2019-05-15T16:10:39.091Z,16.70
2019-05-15T16:13:09.720Z,17.00
2019-05-15T16:15:38.829Z,17.00
2019-05-15T16:18:09.026Z,17.10
2019-05-15T16:20:39.619Z,17.10
2019-05-15T16:23:08.858Z,16.90
2019-05-15T16:25:38.500Z,16.90
2019-05-15T16:28:29.049Z,16.80
2019-05-15T16:31:07.922Z,16.80
2019-05-15T16:33:38.991Z,16.80
2019-05-15T16:36:08.825Z,16.70
2019-05-15T16:38:38.990Z,16.70
2019-05-15T16:41:09.037Z,16.90
2019-05-15T16:43:38.249Z,16.70
2019-05-15T16:46:09.124Z,16.70
2019-05-15T16:48:38.936Z,16.70
2019-05-15T16:51:10.460Z,17.00
2019-05-15T16:53:42.580Z,16.60
2019-05-15T16:56:11.593Z,16.40
2019-05-15T16:58:40.593Z,16.40
2019-05-15T17:01:10.622Z,16.30
2019-05-15T17:03:41.308Z,16.40
2019-05-15T17:06:10.311Z,16.30
2019-05-15T17:08:40.750Z,16.30
2019-05-15T17:11:09.740Z,16.40
2019-05-15T17:13:41.253Z,16.10
2019-05-15T17:16:11.685Z,16.40
2019-05-15T17:18:40.778Z,16.10
2019-05-15T17:21:10.002Z,16.10
2019-05-15T17:23:39.193Z,15.90
2019-05-15T17:26:08.901Z,16.10
2019-05-15T17:28:38.336Z,16.00
2019-05-15T17:31:09.182Z,15.90
2019-05-15T17:33:38.186Z,16.10
2019-05-15T17:36:07.351Z,16.00
2019-05-15T17:38:38.079Z,15.80
2019-05-15T17:41:09.203Z,15.60
2019-05-15T17:43:38.056Z,15.40
2019-05-15T17:46:08.910Z,15.40
2019-05-15T17:48:38.886Z,15.10
2019-05-15T17:51:09.140Z,15.20
2019-05-15T17:53:38.678Z,15.10
2019-05-15T17:56:07.851Z,15.00
2019-05-15T17:58:38.116Z,15.00
2019-05-15T18:01:08.847Z,14.90
2019-05-15T18:03:39.318Z,14.70
2019-05-15T18:06:08.601Z,14.80
2019-05-15T18:08:39.107Z,14.70
2019-05-15T18:11:09.062Z,14.50
2019-05-15T18:13:38.308Z,14.50
2019-05-15T18:16:12.633Z,14.60
2019-05-15T18:18:38.988Z,14.40
2019-05-15T18:21:08.777Z,14.30
2019-05-15T18:23:38.906Z,14.30
2019-05-15T18:26:09.040Z,14.30
2019-05-15T18:28:38.898Z,14.10
2019-05-15T18:31:08.905Z,14.00
2019-05-15T18:33:39.821Z,13.90
2019-05-15T18:36:08.777Z,14.00
2019-05-15T18:38:38.948Z,14.00
2019-05-15T18:41:09.096Z,13.90
2019-05-15T18:43:38.357Z,13.90
2019-05-15T18:46:09.036Z,14.00
2019-05-15T18:48:39.071Z,13.80
2019-05-15T18:51:08.272Z,13.70
2019-05-15T18:53:38.796Z,13.60
2019-05-15T18:56:08.954Z,13.60
2019-05-15T18:58:38.221Z,13.50
2019-05-15T19:01:09.241Z,13.40
2019-05-15T19:03:39.385Z,13.30
2019-05-15T19:06:09.592Z,13.20
2019-05-15T19:08:38.853Z,13.20
2019-05-15T19:11:07.867Z,13.20
2019-05-15T19:13:38.781Z,13.10
2019-05-15T19:16:07.630Z,13.00
2019-05-15T19:18:38.490Z,12.80
2019-05-15T19:21:08.098Z,12.90
2019-05-15T19:23:40.359Z,13.00
2019-05-15T19:26:11.403Z,12.90
2019-05-15T19:28:39.556Z,12.80
2019-05-15T19:31:08.933Z,12.70
2019-05-15T19:33:40.989Z,12.70
2019-05-15T19:36:08.755Z,12.60
2019-05-15T19:38:37.763Z,12.60
2019-05-15T19:41:09.524Z,12.40
2019-05-15T19:43:38.032Z,12.30
2019-05-15T19:46:07.944Z,12.20
2019-05-15T19:48:38.546Z,12.10
2019-05-15T19:51:09.021Z,12.00
2019-05-15T19:53:38.262Z,12.00
2019-05-15T19:56:09.045Z,12.10
2019-05-15T19:58:40.740Z,11.90
2019-05-15T20:01:09.870Z,11.90
2019-05-15T20:03:49.286Z,11.80
2019-05-15T20:06:10.221Z,11.80
2019-05-15T20:08:39.238Z,11.70
2019-05-15T20:11:10.409Z,11.60
2019-05-15T20:13:38.967Z,11.60
2019-05-15T20:16:07.759Z,11.70
2019-05-15T20:18:38.556Z,11.70
2019-05-15T20:21:08.902Z,11.60
2019-05-15T20:23:38.284Z,11.50
2019-05-15T20:26:08.875Z,11.50
2019-05-15T20:28:39.156Z,11.40
2019-05-15T20:31:15.344Z,11.40
2019-05-15T20:33:45.010Z,11.30
2019-05-15T20:36:14.033Z,11.30
2019-05-15T20:38:43.047Z,11.20
2019-05-15T20:41:12.075Z,11.20
2019-05-15T20:43:41.291Z,11.20
2019-05-15T20:46:10.275Z,11.00
2019-05-15T20:48:39.302Z,11.00
2019-05-15T20:51:09.252Z,10.90
2019-05-15T20:53:38.168Z,10.80
2019-05-15T20:56:08.340Z,10.60
2019-05-15T20:58:38.304Z,10.50
2019-05-15T21:01:09.120Z,10.50
2019-05-15T21:03:39.161Z,10.60
2019-05-15T21:06:08.855Z,10.50
2019-05-15T21:08:39.329Z,10.30
2019-05-15T21:11:11.816Z,10.20
2019-05-15T21:13:42.305Z,10.30
2019-05-15T21:16:11.357Z,10.20
2019-05-15T21:18:41.553Z,10.00
2019-05-15T21:21:10.669Z,10.00
2019-05-15T21:23:46.520Z,9.90
2019-05-15T21:26:15.510Z,10.00
2019-05-15T21:28:44.391Z,9.90
2019-05-15T21:31:13.369Z,9.90
2019-05-15T21:33:42.370Z,9.90
2019-05-15T21:36:11.675Z,9.90
2019-05-15T21:38:40.701Z,9.90
2019-05-15T21:41:09.666Z,9.90
2019-05-15T21:43:41.518Z,9.90
2019-05-15T21:46:14.293Z,10.00
2019-05-15T21:48:43.574Z,9.90
2019-05-15T21:51:13.272Z,9.90
2019-05-15T21:53:42.823Z,9.70
2019-05-15T21:56:11.901Z,9.70
2019-05-15T21:58:40.902Z,9.70
2019-05-15T22:01:11.071Z,9.70
2019-05-15T22:03:40.336Z,9.70
2019-05-15T22:06:09.512Z,9.80
2019-05-15T22:08:38.589Z,9.80
2019-05-15T22:11:07.440Z,9.70
2019-05-15T22:13:39.060Z,9.70
2019-05-15T22:16:08.119Z,9.70
2019-05-15T22:18:38.452Z,9.70
2019-05-15T22:21:07.975Z,9.60
2019-05-15T22:23:38.471Z,9.40
2019-05-15T22:26:07.666Z,9.50
2019-05-15T22:28:38.474Z,9.50
2019-05-15T22:31:08.886Z,9.50
2019-05-15T22:33:37.751Z,9.40
2019-05-15T22:36:08.353Z,9.20
2019-05-15T22:38:37.733Z,9.10
2019-05-15T22:41:10.040Z,9.10
2019-05-15T22:43:39.052Z,9.10
2019-05-15T22:46:08.268Z,9.10
2019-05-15T22:48:38.381Z,9.00
2019-05-15T22:51:07.483Z,9.00
2019-05-15T22:53:38.277Z,9.00
2019-05-15T22:56:09.147Z,9.10
2019-05-15T22:58:38.686Z,9.10
2019-05-15T23:01:09.143Z,9.00
2019-05-15T23:03:39.357Z,8.80
2019-05-15T23:06:08.744Z,8.70
2019-05-15T23:08:38.535Z,8.80
2019-05-15T23:11:09.552Z,8.70
2019-05-15T23:13:38.966Z,8.60
2019-05-15T23:16:08.171Z,8.50
2019-05-15T23:18:37.138Z,8.40
2019-05-15T23:21:06.144Z,8.40
2019-05-15T23:23:35.135Z,8.40
2019-05-15T23:26:04.186Z,8.50
2019-05-15T23:28:32.640Z,8.60
2019-05-15T23:31:01.670Z,8.40
2019-05-15T23:33:30.900Z,8.30
2019-05-15T23:36:00.685Z,8.30
2019-05-15T23:38:29.788Z,8.30
2019-05-15T23:40:58.904Z,8.20
2019-05-15T23:43:28.319Z,8.30
2019-05-15T23:45:58.920Z,8.30
2019-05-15T23:48:28.478Z,8.10
2019-05-15T23:50:59.197Z,7.90
2019-05-15T23:53:28.854Z,8.10
2019-05-15T23:55:58.789Z,8.20
2019-05-15T23:58:29.185Z,8.20
